2CUTH EGJB-EGBE
Flight info
| Callsign | 2CUTH |
|---|---|
| Flight time | 0h 52m |
| Altitude | 19000 |
| Route | ORIST Y110 VEXEN L980 MID M185 OCK Q3 HEMEL |
| Aircraft | TBM9/L-SDFGRWY/S |
Departure
| Time | 2026-04-26 16:09 |
|---|---|
| Airport | Guernsey Airport (EGJB) |
Arrival
| Time | 2026-04-26 17:01 |
|---|---|
| Airport | Coventry Airport (EGBE) |
| Time | Latitude | Longitude | Altitude | Speed | Heading |
|---|---|---|---|---|---|
| 2026-04-26 15:54 | 49.43194 | -2.60000 | 329 ft | 0 kts | 266° |
| 2026-04-26 16:04 | 49.43194 | -2.60003 | 356 ft | 2 kts | 299° |
| 2026-04-26 16:05 | 49.43198 | -2.59980 | 329 ft | 7 kts | 104° |
| 2026-04-26 16:05 | 49.43221 | -2.59924 | 329 ft | 8 kts | 358° |
| 2026-04-26 16:05 | 49.43290 | -2.59928 | 330 ft | 10 kts | 357° |
| 2026-04-26 16:05 | 49.43341 | -2.59966 | 330 ft | 11 kts | 266° |
| 2026-04-26 16:06 | 49.43337 | -2.60130 | 327 ft | 19 kts | 268° |
| 2026-04-26 16:06 | 49.43331 | -2.60380 | 323 ft | 27 kts | 268° |
| 2026-04-26 16:06 | 49.43334 | -2.60662 | 318 ft | 23 kts | 281° |
| 2026-04-26 16:06 | 49.43364 | -2.60886 | 315 ft | 18 kts | 266° |
| 2026-04-26 16:07 | 49.43364 | -2.61080 | 312 ft | 15 kts | 273° |
| 2026-04-26 16:07 | 49.43364 | -2.61186 | 310 ft | 4 kts | 263° |
| 2026-04-26 16:07 | 49.43360 | -2.61243 | 309 ft | 6 kts | 274° |
| 2026-04-26 16:07 | 49.43387 | -2.61304 | 308 ft | 9 kts | 310° |
| 2026-04-26 16:08 | 49.43430 | -2.61366 | 307 ft | 7 kts | 332° |
| 2026-04-26 16:08 | 49.43463 | -2.61360 | 307 ft | 8 kts | 11° |
| 2026-04-26 16:08 | 49.43471 | -2.61304 | 309 ft | 16 kts | 93° |
| 2026-04-26 16:08 | 49.43480 | -2.60818 | 317 ft | 77 kts | 88° |
| 2026-04-26 16:09 | 49.43534 | -2.59792 | 537 ft | 108 kts | 79° |
| 2026-04-26 16:09 | 49.43681 | -2.58609 | 1013 ft | 120 kts | 79° |
| 2026-04-26 16:09 | 49.43702 | -2.57296 | 1579 ft | 125 kts | 94° |
| 2026-04-26 16:09 | 49.43677 | -2.55964 | 2254 ft | 126 kts | 91° |
| 2026-04-26 16:10 | 49.43676 | -2.54566 | 2801 ft | 140 kts | 91° |
| 2026-04-26 16:10 | 49.43697 | -2.52935 | 3074 ft | 166 kts | 89° |
| 2026-04-26 16:10 | 49.43830 | -2.51067 | 3319 ft | 183 kts | 71° |
| 2026-04-26 16:10 | 49.44509 | -2.49428 | 3823 ft | 183 kts | 45° |
| 2026-04-26 16:11 | 49.45575 | -2.48391 | 4299 ft | 183 kts | 18° |
| 2026-04-26 16:11 | 49.46806 | -2.47921 | 4810 ft | 182 kts | 12° |
| 2026-04-26 16:11 | 49.48040 | -2.47449 | 5344 ft | 183 kts | 13° |
| 2026-04-26 16:11 | 49.49280 | -2.46972 | 5840 ft | 185 kts | 12° |
| 2026-04-26 16:12 | 49.50541 | -2.46494 | 6346 ft | 188 kts | 13° |
| 2026-04-26 16:12 | 49.51802 | -2.46016 | 6828 ft | 190 kts | 13° |
| 2026-04-26 16:12 | 49.54408 | -2.45024 | 7797 ft | 195 kts | 13° |
| 2026-04-26 16:13 | 49.55736 | -2.44518 | 8352 ft | 197 kts | 13° |
| 2026-04-26 16:13 | 49.57076 | -2.44007 | 8926 ft | 200 kts | 13° |
| 2026-04-26 16:13 | 49.58433 | -2.43488 | 9486 ft | 202 kts | 14° |
| 2026-04-26 16:13 | 49.59810 | -2.42962 | 10055 ft | 205 kts | 13° |
| 2026-04-26 16:14 | 49.60732 | -2.42609 | 10391 ft | 207 kts | 13° |
| 2026-04-26 16:14 | 49.62138 | -2.42069 | 10901 ft | 209 kts | 13° |
| 2026-04-26 16:14 | 49.64993 | -2.40977 | 11943 ft | 213 kts | 13° |
| 2026-04-26 16:15 | 49.66441 | -2.40423 | 12469 ft | 215 kts | 13° |
| 2026-04-26 16:15 | 49.67903 | -2.39863 | 12992 ft | 217 kts | 13° |
| 2026-04-26 16:15 | 49.69371 | -2.39262 | 13516 ft | 220 kts | 19° |
| 2026-04-26 16:16 | 49.71736 | -2.36263 | 14493 ft | 226 kts | 50° |
| 2026-04-26 16:16 | 49.72758 | -2.34401 | 14952 ft | 228 kts | 49° |
| 2026-04-26 16:16 | 49.73796 | -2.32525 | 15419 ft | 231 kts | 49° |
| 2026-04-26 16:16 | 49.74829 | -2.30649 | 15874 ft | 233 kts | 49° |
| 2026-04-26 16:17 | 49.75884 | -2.28727 | 16339 ft | 236 kts | 49° |
| 2026-04-26 16:17 | 49.76952 | -2.26783 | 16808 ft | 238 kts | 48° |
| 2026-04-26 16:17 | 49.78031 | -2.24820 | 17275 ft | 241 kts | 48° |
| 2026-04-26 16:17 | 49.79120 | -2.22834 | 17744 ft | 243 kts | 48° |
| 2026-04-26 16:18 | 49.80223 | -2.20823 | 18208 ft | 246 kts | 47° |
| 2026-04-26 16:18 | 49.82459 | -2.16738 | 19077 ft | 250 kts | 47° |
| 2026-04-26 16:19 | 49.84834 | -2.12385 | 19245 ft | 281 kts | 48° |
| 2026-04-26 16:19 | 49.86103 | -2.10050 | 19252 ft | 292 kts | 48° |
| 2026-04-26 16:19 | 49.88789 | -2.05118 | 19251 ft | 303 kts | 48° |
| 2026-04-26 16:20 | 49.90155 | -2.02611 | 19250 ft | 305 kts | 48° |
| 2026-04-26 16:20 | 49.92912 | -1.97541 | 19254 ft | 308 kts | 48° |
| 2026-04-26 16:20 | 49.94295 | -1.94994 | 19252 ft | 308 kts | 48° |
| 2026-04-26 16:21 | 49.95679 | -1.92441 | 19254 ft | 309 kts | 48° |
| 2026-04-26 16:21 | 49.97063 | -1.89888 | 19254 ft | 309 kts | 48° |
| 2026-04-26 16:21 | 49.98497 | -1.87419 | 19240 ft | 307 kts | 40° |
| 2026-04-26 16:21 | 50.00240 | -1.85538 | 19235 ft | 303 kts | 25° |
| 2026-04-26 16:22 | 50.02186 | -1.84360 | 19235 ft | 299 kts | 11° |
| 2026-04-26 16:22 | 50.04222 | -1.83895 | 19237 ft | 295 kts | 1° |
| 2026-04-26 16:22 | 50.06266 | -1.83637 | 19245 ft | 295 kts | 1° |
| 2026-04-26 16:22 | 50.08286 | -1.83356 | 19244 ft | 295 kts | 1° |
| 2026-04-26 16:23 | 50.10328 | -1.83077 | 19244 ft | 294 kts | 1° |
| 2026-04-26 16:23 | 50.12370 | -1.82703 | 19253 ft | 297 kts | 9° |
| 2026-04-26 16:23 | 50.14329 | -1.81624 | 19260 ft | 301 kts | 23° |
| 2026-04-26 16:23 | 50.16095 | -1.79837 | 19262 ft | 305 kts | 37° |
| 2026-04-26 16:24 | 50.17728 | -1.77725 | 19265 ft | 305 kts | 37° |
| 2026-04-26 16:24 | 50.19376 | -1.75625 | 19264 ft | 305 kts | 37° |
| 2026-04-26 16:24 | 50.21019 | -1.73523 | 19266 ft | 305 kts | 37° |
| 2026-04-26 16:24 | 50.22658 | -1.71411 | 19264 ft | 305 kts | 37° |
| 2026-04-26 16:25 | 50.24274 | -1.69329 | 19265 ft | 305 kts | 37° |
| 2026-04-26 16:25 | 50.25915 | -1.67216 | 19265 ft | 305 kts | 37° |
| 2026-04-26 16:25 | 50.27553 | -1.65107 | 19265 ft | 305 kts | 37° |
| 2026-04-26 16:25 | 50.29189 | -1.62996 | 19264 ft | 305 kts | 37° |
| 2026-04-26 16:26 | 50.30825 | -1.60882 | 19268 ft | 305 kts | 37° |
| 2026-04-26 16:26 | 50.32461 | -1.58768 | 19267 ft | 305 kts | 37° |
| 2026-04-26 16:26 | 50.34099 | -1.56650 | 19268 ft | 305 kts | 37° |
| 2026-04-26 16:26 | 50.35737 | -1.54529 | 19265 ft | 305 kts | 37° |
| 2026-04-26 16:27 | 50.37372 | -1.52410 | 19264 ft | 305 kts | 37° |
| 2026-04-26 16:27 | 50.39005 | -1.50290 | 19269 ft | 305 kts | 37° |
| 2026-04-26 16:27 | 50.40619 | -1.48194 | 19265 ft | 305 kts | 37° |
| 2026-04-26 16:27 | 50.42250 | -1.46075 | 19265 ft | 305 kts | 37° |
| 2026-04-26 16:28 | 50.43883 | -1.43952 | 19264 ft | 305 kts | 37° |
| 2026-04-26 16:28 | 50.45515 | -1.41825 | 19255 ft | 304 kts | 37° |
| 2026-04-26 16:28 | 50.47143 | -1.39704 | 19263 ft | 304 kts | 37° |
| 2026-04-26 16:28 | 50.48776 | -1.37574 | 19264 ft | 304 kts | 37° |
| 2026-04-26 16:29 | 50.50405 | -1.35448 | 19262 ft | 304 kts | 38° |
| 2026-04-26 16:29 | 50.52033 | -1.33319 | 19261 ft | 304 kts | 38° |
| 2026-04-26 16:29 | 50.53660 | -1.31189 | 19263 ft | 304 kts | 38° |
| 2026-04-26 16:29 | 50.55285 | -1.29063 | 19263 ft | 304 kts | 38° |
| 2026-04-26 16:30 | 50.56885 | -1.26967 | 19262 ft | 304 kts | 38° |
| 2026-04-26 16:30 | 50.58506 | -1.24839 | 19262 ft | 304 kts | 38° |
| 2026-04-26 16:30 | 50.60128 | -1.22706 | 19268 ft | 303 kts | 38° |
| 2026-04-26 16:30 | 50.61753 | -1.20573 | 19266 ft | 304 kts | 38° |
| 2026-04-26 16:31 | 50.63379 | -1.18438 | 19262 ft | 304 kts | 38° |
| 2026-04-26 16:31 | 50.65005 | -1.16298 | 19263 ft | 304 kts | 38° |
| 2026-04-26 16:31 | 50.66630 | -1.14153 | 19262 ft | 304 kts | 38° |
| 2026-04-26 16:31 | 50.68254 | -1.12009 | 19258 ft | 304 kts | 38° |
| 2026-04-26 16:32 | 50.69873 | -1.09871 | 19265 ft | 303 kts | 38° |
| 2026-04-26 16:32 | 50.70946 | -1.08456 | 19266 ft | 303 kts | 38° |
| 2026-04-26 16:32 | 50.73107 | -1.05598 | 19264 ft | 303 kts | 38° |
| 2026-04-26 16:32 | 50.74720 | -1.03462 | 19264 ft | 302 kts | 38° |
| 2026-04-26 16:33 | 50.76310 | -1.01355 | 19259 ft | 302 kts | 38° |
| 2026-04-26 16:33 | 50.77921 | -0.99217 | 19267 ft | 302 kts | 38° |
| 2026-04-26 16:33 | 50.79532 | -0.97079 | 19262 ft | 302 kts | 38° |
| 2026-04-26 16:33 | 50.81137 | -0.94946 | 19267 ft | 301 kts | 38° |
| 2026-04-26 16:34 | 50.82740 | -0.92815 | 19265 ft | 301 kts | 38° |
| 2026-04-26 16:34 | 50.84343 | -0.90680 | 19265 ft | 301 kts | 38° |
| 2026-04-26 16:34 | 50.85942 | -0.88546 | 19272 ft | 300 kts | 38° |
| 2026-04-26 16:34 | 50.87541 | -0.86417 | 19267 ft | 300 kts | 38° |
| 2026-04-26 16:35 | 50.89139 | -0.84284 | 19268 ft | 300 kts | 38° |
| 2026-04-26 16:35 | 50.90725 | -0.82162 | 19268 ft | 300 kts | 38° |
| 2026-04-26 16:35 | 50.92322 | -0.80027 | 19271 ft | 300 kts | 38° |
| 2026-04-26 16:35 | 50.93912 | -0.77899 | 19268 ft | 299 kts | 38° |
| 2026-04-26 16:36 | 50.95501 | -0.75769 | 19270 ft | 299 kts | 38° |
| 2026-04-26 16:36 | 50.97095 | -0.73630 | 19266 ft | 299 kts | 38° |
| 2026-04-26 16:36 | 50.98686 | -0.71493 | 19268 ft | 299 kts | 38° |
| 2026-04-26 16:36 | 51.00253 | -0.69390 | 19269 ft | 299 kts | 38° |
| 2026-04-26 16:37 | 51.01837 | -0.67257 | 19272 ft | 298 kts | 38° |
| 2026-04-26 16:37 | 51.03421 | -0.65125 | 19260 ft | 299 kts | 38° |
| 2026-04-26 16:37 | 51.05014 | -0.63009 | 19261 ft | 297 kts | 35° |
| 2026-04-26 16:37 | 51.06789 | -0.61385 | 19263 ft | 294 kts | 22° |
| 2026-04-26 16:38 | 51.08639 | -0.59994 | 19257 ft | 293 kts | 23° |
| 2026-04-26 16:38 | 51.10468 | -0.58563 | 19261 ft | 292 kts | 24° |
| 2026-04-26 16:38 | 51.12294 | -0.57139 | 19263 ft | 292 kts | 23° |
| 2026-04-26 16:38 | 51.14125 | -0.55735 | 19256 ft | 291 kts | 23° |
| 2026-04-26 16:39 | 51.15947 | -0.54331 | 19260 ft | 291 kts | 23° |
| 2026-04-26 16:39 | 51.17765 | -0.52919 | 19258 ft | 290 kts | 23° |
| 2026-04-26 16:39 | 51.19583 | -0.51510 | 19261 ft | 291 kts | 23° |
| 2026-04-26 16:39 | 51.21407 | -0.50100 | 19260 ft | 291 kts | 23° |
| 2026-04-26 16:40 | 51.23209 | -0.48708 | 19255 ft | 291 kts | 22° |
| 2026-04-26 16:40 | 51.25110 | -0.47622 | 19265 ft | 290 kts | 15° |
| 2026-04-26 16:40 | 51.27026 | -0.46599 | 19261 ft | 290 kts | 16° |
| 2026-04-26 16:40 | 51.28942 | -0.45544 | 19266 ft | 290 kts | 17° |
| 2026-04-26 16:41 | 51.30881 | -0.44716 | 19260 ft | 287 kts | 5° |
| 2026-04-26 16:41 | 51.32869 | -0.44560 | 19262 ft | 286 kts | 359° |
| 2026-04-26 16:41 | 51.34859 | -0.44459 | 19260 ft | 286 kts | 360° |
| 2026-04-26 16:41 | 51.36851 | -0.44338 | 19260 ft | 287 kts | 360° |
| 2026-04-26 16:42 | 51.38850 | -0.44226 | 19260 ft | 288 kts | 359° |
| 2026-04-26 16:42 | 51.40855 | -0.44118 | 19261 ft | 288 kts | 359° |
| 2026-04-26 16:42 | 51.42865 | -0.44007 | 19260 ft | 289 kts | 360° |
| 2026-04-26 16:42 | 51.44876 | -0.43896 | 19261 ft | 289 kts | 360° |
| 2026-04-26 16:43 | 51.46883 | -0.43785 | 19259 ft | 289 kts | 360° |
| 2026-04-26 16:43 | 51.48868 | -0.43675 | 19257 ft | 289 kts | 360° |
| 2026-04-26 16:43 | 51.50874 | -0.43564 | 19256 ft | 288 kts | 360° |
| 2026-04-26 16:43 | 51.52880 | -0.43452 | 19261 ft | 288 kts | 360° |
| 2026-04-26 16:44 | 51.54885 | -0.43342 | 19258 ft | 289 kts | 360° |
| 2026-04-26 16:44 | 51.56896 | -0.43231 | 19256 ft | 288 kts | 360° |
| 2026-04-26 16:44 | 51.58902 | -0.43118 | 19257 ft | 289 kts | 360° |
| 2026-04-26 16:44 | 51.60909 | -0.43007 | 19258 ft | 289 kts | 360° |
| 2026-04-26 16:45 | 51.62921 | -0.42895 | 19259 ft | 289 kts | 0° |
| 2026-04-26 16:45 | 51.64927 | -0.42782 | 19259 ft | 289 kts | 0° |
| 2026-04-26 16:45 | 51.66935 | -0.42670 | 19285 ft | 289 kts | 0° |
| 2026-04-26 16:45 | 51.68941 | -0.42561 | 19287 ft | 289 kts | 0° |
| 2026-04-26 16:46 | 51.70954 | -0.42446 | 19285 ft | 289 kts | 0° |
| 2026-04-26 16:46 | 51.72968 | -0.42330 | 19288 ft | 290 kts | 0° |
| 2026-04-26 16:46 | 51.74985 | -0.42218 | 19283 ft | 290 kts | 0° |
| 2026-04-26 16:46 | 51.77006 | -0.42107 | 19283 ft | 291 kts | 0° |
| 2026-04-26 16:47 | 51.79027 | -0.42062 | 19284 ft | 289 kts | 354° |
| 2026-04-26 16:47 | 51.80988 | -0.42701 | 19282 ft | 286 kts | 340° |
| 2026-04-26 16:47 | 51.82762 | -0.44026 | 19285 ft | 284 kts | 328° |
| 2026-04-26 16:47 | 51.84457 | -0.45698 | 19287 ft | 284 kts | 328° |
| 2026-04-26 16:48 | 51.86155 | -0.47334 | 19288 ft | 284 kts | 328° |
| 2026-04-26 16:48 | 51.87850 | -0.48969 | 19255 ft | 284 kts | 328° |
| 2026-04-26 16:48 | 51.89570 | -0.50645 | 18960 ft | 293 kts | 328° |
| 2026-04-26 16:48 | 51.91339 | -0.52368 | 18583 ft | 300 kts | 328° |
| 2026-04-26 16:49 | 51.93145 | -0.54122 | 18146 ft | 304 kts | 328° |
| 2026-04-26 16:49 | 51.94960 | -0.55890 | 17712 ft | 305 kts | 328° |
| 2026-04-26 16:49 | 51.96777 | -0.57664 | 17307 ft | 305 kts | 328° |
| 2026-04-26 16:49 | 51.98592 | -0.59440 | 16913 ft | 304 kts | 328° |
| 2026-04-26 16:50 | 52.00407 | -0.61216 | 16500 ft | 304 kts | 328° |
| 2026-04-26 16:50 | 52.02195 | -0.62964 | 16106 ft | 297 kts | 328° |
| 2026-04-26 16:50 | 52.03949 | -0.64694 | 15717 ft | 294 kts | 328° |
| 2026-04-26 16:50 | 52.05694 | -0.66410 | 15331 ft | 292 kts | 328° |
| 2026-04-26 16:51 | 52.07427 | -0.68105 | 14950 ft | 290 kts | 328° |
| 2026-04-26 16:51 | 52.09148 | -0.69794 | 14569 ft | 288 kts | 328° |
| 2026-04-26 16:51 | 52.10865 | -0.71484 | 14187 ft | 288 kts | 328° |
| 2026-04-26 16:51 | 52.12573 | -0.73166 | 13792 ft | 286 kts | 328° |
| 2026-04-26 16:52 | 52.14265 | -0.74835 | 13409 ft | 283 kts | 328° |
| 2026-04-26 16:52 | 52.14813 | -0.75377 | 13284 ft | 283 kts | 328° |
| 2026-04-26 16:52 | 52.17602 | -0.78130 | 12668 ft | 281 kts | 328° |
| 2026-04-26 16:52 | 52.19272 | -0.79777 | 12295 ft | 280 kts | 328° |
| 2026-04-26 16:53 | 52.20933 | -0.81424 | 11930 ft | 279 kts | 328° |
| 2026-04-26 16:53 | 52.22572 | -0.83096 | 11554 ft | 277 kts | 324° |
| 2026-04-26 16:53 | 52.23950 | -0.85273 | 11180 ft | 275 kts | 309° |
| 2026-04-26 16:53 | 52.24958 | -0.87910 | 10814 ft | 274 kts | 296° |
| 2026-04-26 16:54 | 52.25547 | -0.90866 | 10460 ft | 275 kts | 283° |
| 2026-04-26 16:54 | 52.25944 | -0.93918 | 10102 ft | 274 kts | 283° |
| 2026-04-26 16:54 | 52.26369 | -0.96920 | 9739 ft | 269 kts | 284° |
| 2026-04-26 16:54 | 52.26779 | -0.99874 | 9383 ft | 265 kts | 283° |
| 2026-04-26 16:55 | 52.27177 | -1.02836 | 8831 ft | 270 kts | 284° |
| 2026-04-26 16:55 | 52.27593 | -1.05809 | 8402 ft | 267 kts | 284° |
| 2026-04-26 16:55 | 52.27993 | -1.08741 | 8047 ft | 263 kts | 283° |
| 2026-04-26 16:55 | 52.28379 | -1.11643 | 7698 ft | 259 kts | 283° |
| 2026-04-26 16:56 | 52.29145 | -1.17149 | 7055 ft | 245 kts | 284° |
| 2026-04-26 16:56 | 52.29533 | -1.19845 | 6717 ft | 244 kts | 284° |
| 2026-04-26 16:56 | 52.29928 | -1.22554 | 6273 ft | 245 kts | 284° |
| 2026-04-26 16:57 | 52.30322 | -1.25258 | 5840 ft | 244 kts | 284° |
| 2026-04-26 16:57 | 52.30714 | -1.27839 | 5411 ft | 227 kts | 289° |
| 2026-04-26 16:57 | 52.32387 | -1.31990 | 4550 ft | 215 kts | 316° |
| 2026-04-26 16:58 | 52.33471 | -1.33613 | 4112 ft | 207 kts | 319° |
| 2026-04-26 16:58 | 52.33817 | -1.34117 | 3968 ft | 205 kts | 319° |
| 2026-04-26 16:58 | 52.36345 | -1.37804 | 2791 ft | 167 kts | 319° |
| 2026-04-26 16:59 | 52.37190 | -1.39039 | 2431 ft | 156 kts | 319° |
| 2026-04-26 16:59 | 52.38690 | -1.41245 | 1895 ft | 136 kts | 319° |
| 2026-04-26 17:00 | 52.39770 | -1.42998 | 1351 ft | 130 kts | 277° |
| 2026-04-26 17:00 | 52.38667 | -1.44966 | 780 ft | 108 kts | 233° |
| 2026-04-26 17:00 | 52.38176 | -1.45843 | 563 ft | 106 kts | 226° |
| 2026-04-26 17:01 | 52.37691 | -1.46703 | 389 ft | 100 kts | 225° |
| 2026-04-26 17:01 | 52.37233 | -1.47520 | 287 ft | 85 kts | 226° |
| 2026-04-26 17:01 | 52.36932 | -1.48050 | 282 ft | 23 kts | 228° |
| 2026-04-26 17:01 | 52.36883 | -1.48207 | 281 ft | 13 kts | 324° |
| 2026-04-26 17:02 | 52.36976 | -1.48239 | 280 ft | 12 kts | 353° |
| 2026-04-26 17:02 | 52.37061 | -1.48262 | 280 ft | 9 kts | 354° |
| 2026-04-26 17:02 | 52.37064 | -1.48322 | 279 ft | 6 kts | 148° |
| 2026-04-26 17:02 | 52.37061 | -1.48313 | 279 ft | 0 kts | 86° |